Portada
METAR-TAF:

METAR-TAF

Aeroports :

Mwanza, Tanzània

latitud: 02-28S, longitud: 032-55E, altitud: 1139 m

Observació

L'informe es va fer fa 41 minuts, a les 02:00 UTC
Vent 5 kt del Sud
Temperatura 21°C
Humitat 78%
Pressió 1014 hPa
Visibilitat 10 km o més
Escasses núvols a una alçada de 1800 ft
Escasses núvols a una alçada de 1900 ft, Cumulonimbus.

METAR: HTMW 300200Z 18005KT 9999 FEW018 FEW019CB 21/17 Q1014 NOSIG

Hora: 05:41 (02:41 UTC)

Pronòstic

L'informe es va fer fa 3 hores i 41 minuts, a les 23:00 UTC
Pronòstic vàlid del 30 a les 00 UTC al 30 a les 24 UTC
Vent 10 kt del Sud-Est
Visibilitat 10 km o més
Escasses núvols a una alçada de 1900 ft
Escasses núvols a una alçada de 2000 ft, Cumulonimbus.
Evolucionant progressivament
l' 30 a les 11 UTC al 30 a les 13 UTC
Vent 10 kt del Nord/Nord-Oest

TAF: HTMW 292300Z 3000/3024 13010KT 9999 FEW019 FEW020CB BECMG 3011/3013 33010KT

Observacions i pronòstics meteorològics de més de 4000 aeroports (METAR i TAF).

Les estacions disponibles són els punts grocs i vermells al mapa.

Posi el ratolí al punt desitjat per veure el nom de l'estació.

Feu clic per veure les observacions i els pronòstics meteorològics.

Per canviar el mapa: feu clic els botons verds amb una creu de color negre per apropar; al botó verd amb un guió per allunyar la imatge; o en les fletxes verdes per a mapes adjacents.


METAR-TAF: